createdAt,value
2023-03-26T00:00:30.738Z,11.30
2023-03-26T00:03:30.823Z,15.00
2023-03-26T00:06:12.491Z,12.60
2023-03-26T00:08:49.403Z,13.40
2023-03-26T00:11:38.157Z,15.70
2023-03-26T00:14:15.339Z,12.80
2023-03-26T00:16:51.034Z,13.00
2023-03-26T00:19:22.763Z,12.50
2023-03-26T00:22:06.778Z,10.30
2023-03-26T00:24:51.613Z,12.10
2023-03-26T00:27:25.075Z,13.50
2023-03-26T00:29:57.482Z,14.30
2023-03-26T00:35:10.875Z,10.00
2023-03-26T00:37:53.094Z,10.40
2023-03-26T00:40:24.337Z,10.90
2023-03-26T00:43:09.669Z,12.20
2023-03-26T00:45:41.645Z,10.50
2023-03-26T00:48:16.833Z,13.90
2023-03-26T00:50:52.929Z,20.80
2023-03-26T00:53:24.617Z,10.80
2023-03-26T00:55:59.781Z,14.00
2023-03-26T00:58:31.768Z,8.70
2023-03-26T01:01:13.249Z,9.70
2023-03-26T01:04:07.394Z,9.40
2023-03-26T01:06:41.504Z,9.60
2023-03-26T01:09:34.189Z,12.10
2023-03-26T01:12:37.082Z,12.30
2023-03-26T01:15:16.599Z,10.20
2023-03-26T01:17:51.472Z,9.90
2023-03-26T01:20:33.524Z,11.70
2023-03-26T01:23:11.347Z,11.10
2023-03-26T01:26:03.903Z,14.40
2023-03-26T01:28:41.342Z,10.90
2023-03-26T01:31:24.944Z,10.30
2023-03-26T01:34:12.494Z,11.40
2023-03-26T01:37:17.579Z,10.80
2023-03-26T01:40:32.040Z,11.20
2023-03-26T01:43:37.630Z,8.50
2023-03-26T01:46:22.250Z,8.90
2023-03-26T01:49:03.229Z,8.10
2023-03-26T01:51:42.322Z,8.30
2023-03-26T01:54:26.529Z,7.10
2023-03-26T01:58:06.526Z,6.50
2023-03-26T02:00:52.576Z,7.90
2023-03-26T02:03:44.410Z,9.60
2023-03-26T02:06:49.161Z,11.60
2023-03-26T02:09:59.780Z,46.70
2023-03-26T02:12:39.271Z,21.20
2023-03-26T02:15:28.151Z,6.50
2023-03-26T02:20:55.300Z,7.70
2023-03-26T02:37:04.951Z,8.20
2023-03-26T02:39:34.332Z,5.80
2023-03-26T02:42:13.339Z,6.10
2023-03-26T02:44:50.047Z,6.10
2023-03-26T02:47:21.620Z,5.70
2023-03-26T02:50:11.719Z,7.70
2023-03-26T02:53:00.437Z,6.90
2023-03-26T02:55:30.034Z,3.40
2023-03-26T02:58:03.482Z,7.70
2023-03-26T03:00:52.199Z,7.60
2023-03-26T03:03:30.275Z,21.40
2023-03-26T03:06:05.818Z,5.50
2023-03-26T03:08:55.143Z,4.90
2023-03-26T03:12:00.447Z,12.80
2023-03-26T03:14:32.235Z,12.70
2023-03-26T03:17:11.466Z,15.30
2023-03-26T03:19:48.340Z,20.90
2023-03-26T03:22:33.938Z,11.40
2023-03-26T03:25:15.583Z,5.60
2023-03-26T03:27:53.714Z,25.00
2023-03-26T03:30:23.864Z,60.40
2023-03-26T03:33:33.903Z,36.90
2023-03-26T03:36:20.470Z,8.30
2023-03-26T03:39:02.110Z,6.90
2023-03-26T03:41:45.851Z,4.30
2023-03-26T03:44:20.950Z,4.00
2023-03-26T03:46:53.783Z,5.30
2023-03-26T03:49:24.051Z,3.90
2023-03-26T03:51:59.253Z,6.80
2023-03-26T03:54:39.898Z,5.20
2023-03-26T03:57:18.496Z,6.90
2023-03-26T04:00:08.697Z,9.40
2023-03-26T04:02:56.782Z,6.70
2023-03-26T04:05:36.215Z,6.00
2023-03-26T04:08:07.444Z,7.30
2023-03-26T04:11:04.116Z,7.40
2023-03-26T04:13:35.061Z,9.50
2023-03-26T04:16:24.385Z,7.40
2023-03-26T04:19:04.152Z,5.70
2023-03-26T04:21:42.553Z,7.30
2023-03-26T04:27:26.273Z,10.00
2023-03-26T04:30:05.253Z,5.00
2023-03-26T04:32:46.336Z,6.20
2023-03-26T04:35:21.450Z,5.10
2023-03-26T04:38:11.166Z,6.10
2023-03-26T04:40:54.191Z,5.40
2023-03-26T04:43:36.838Z,5.60
2023-03-26T04:50:04.128Z,5.10
2023-03-26T04:52:36.736Z,7.20
2023-03-26T04:56:12.235Z,7.60
2023-03-26T04:59:14.632Z,5.70
2023-03-26T05:01:50.256Z,5.70
2023-03-26T05:04:22.303Z,8.20
2023-03-26T05:07:00.537Z,7.70
2023-03-26T05:09:42.457Z,11.20
2023-03-26T05:12:26.577Z,5.60
2023-03-26T05:15:07.232Z,3.40
2023-03-26T05:18:02.828Z,4.40
2023-03-26T05:21:11.600Z,5.40
2023-03-26T05:24:19.645Z,4.20
2023-03-26T05:26:51.979Z,6.90
2023-03-26T05:29:31.973Z,4.40
2023-03-26T05:32:05.401Z,3.80
2023-03-26T05:34:39.336Z,6.10
2023-03-26T05:37:13.923Z,8.10
2023-03-26T05:40:14.679Z,5.30
2023-03-26T05:42:53.164Z,5.40
2023-03-26T05:46:09.253Z,6.40
2023-03-26T05:48:44.787Z,6.30
2023-03-26T05:51:16.253Z,6.40
2023-03-26T05:53:55.750Z,3.60
2023-03-26T05:56:47.349Z,3.90
2023-03-26T05:59:44.300Z,3.70
2023-03-26T06:02:34.638Z,4.90
2023-03-26T06:05:48.811Z,8.40
2023-03-26T06:08:26.080Z,5.30
2023-03-26T06:11:00.866Z,4.80
2023-03-26T06:13:35.029Z,4.60
2023-03-26T06:16:06.004Z,3.90
2023-03-26T06:18:47.336Z,6.20
2023-03-26T06:21:41.495Z,3.10
2023-03-26T06:24:19.683Z,3.50
2023-03-26T06:29:33.522Z,7.60
2023-03-26T06:32:38.877Z,8.50
2023-03-26T06:35:14.264Z,8.40
2023-03-26T06:37:45.290Z,6.60
2023-03-26T06:40:15.879Z,11.70
2023-03-26T06:43:08.575Z,7.50
2023-03-26T06:45:58.406Z,6.00
2023-03-26T06:48:47.540Z,6.50
2023-03-26T06:51:24.534Z,6.00
2023-03-26T06:54:31.880Z,8.10
2023-03-26T06:57:15.904Z,7.10
2023-03-26T07:00:10.383Z,6.00
2023-03-26T07:03:20.068Z,8.70
2023-03-26T07:06:17.118Z,5.80
2023-03-26T07:09:34.376Z,6.30
2023-03-26T07:12:41.913Z,6.70
2023-03-26T07:15:34.219Z,4.50
2023-03-26T07:18:23.297Z,4.00
2023-03-26T07:20:59.146Z,4.80
2023-03-26T07:23:36.968Z,5.10
2023-03-26T07:27:09.357Z,10.80
2023-03-26T07:30:12.171Z,12.00
2023-03-26T07:33:15.768Z,11.80
2023-03-26T07:36:43.266Z,10.00
2023-03-26T07:40:12.619Z,21.70
2023-03-26T07:43:48.996Z,11.70
2023-03-26T07:47:08.182Z,10.40
2023-03-26T07:49:51.677Z,9.70
2023-03-26T07:52:47.973Z,9.90
2023-03-26T07:56:04.398Z,8.10
2023-03-26T07:59:15.180Z,6.90
2023-03-26T08:02:51.498Z,6.40
2023-03-26T08:06:04.225Z,6.70
2023-03-26T08:09:26.305Z,16.00
2023-03-26T08:12:47.056Z,9.70
2023-03-26T08:15:38.986Z,6.10
2023-03-26T08:18:45.644Z,4.60
2023-03-26T08:21:31.569Z,7.70
2023-03-26T08:24:38.190Z,9.70
2023-03-26T08:27:22.011Z,6.30
2023-03-26T08:30:01.862Z,6.60
2023-03-26T08:32:39.398Z,4.00
2023-03-26T08:35:14.943Z,6.20
2023-03-26T08:37:48.216Z,4.30
2023-03-26T08:40:55.187Z,9.00
2023-03-26T08:44:06.406Z,9.30
2023-03-26T08:47:03.884Z,7.20
2023-03-26T08:50:38.285Z,5.90
2023-03-26T08:53:51.726Z,3.80
2023-03-26T08:57:08.122Z,6.50
2023-03-26T09:00:32.872Z,5.50
2023-03-26T09:03:23.246Z,9.00
2023-03-26T09:06:16.602Z,7.20
2023-03-26T09:09:30.546Z,5.50
2023-03-26T09:12:36.032Z,8.20
2023-03-26T09:15:28.438Z,7.30
2023-03-26T09:18:38.295Z,5.20
2023-03-26T09:21:18.237Z,7.30
2023-03-26T09:24:20.481Z,5.20
2023-03-26T09:27:47.283Z,6.30
2023-03-26T09:31:01.777Z,4.10
2023-03-26T09:34:03.239Z,7.60
2023-03-26T09:37:22.479Z,5.30
2023-03-26T09:39:55.768Z,11.00
2023-03-26T09:43:05.177Z,12.90
2023-03-26T09:46:19.347Z,10.30
2023-03-26T09:49:15.604Z,9.50
2023-03-26T09:52:36.572Z,12.20
2023-03-26T09:56:03.891Z,12.10
2023-03-26T09:59:15.377Z,10.10
2023-03-26T10:02:45.557Z,7.90
2023-03-26T10:05:46.522Z,7.80
2023-03-26T10:08:48.214Z,5.80
2023-03-26T10:11:44.831Z,4.00
2023-03-26T10:14:53.143Z,5.50
2023-03-26T10:18:03.925Z,5.50
2023-03-26T10:21:11.606Z,3.90
2023-03-26T10:24:02.192Z,6.40
2023-03-26T10:27:08.767Z,3.40
2023-03-26T10:30:16.011Z,8.50
2023-03-26T10:33:42.975Z,4.60
2023-03-26T10:36:52.541Z,4.10
2023-03-26T10:39:50.976Z,2.80
2023-03-26T10:43:39.499Z,3.80
2023-03-26T10:47:30.051Z,4.00
2023-03-26T10:50:57.413Z,6.90
2023-03-26T10:54:26.038Z,5.20
2023-03-26T10:57:46.164Z,6.20
2023-03-26T11:00:29.890Z,4.40
2023-03-26T11:03:40.166Z,6.60
2023-03-26T11:06:38.448Z,5.70
2023-03-26T11:09:27.336Z,3.90
2023-03-26T11:12:27.228Z,5.20
2023-03-26T11:15:40.054Z,6.90
2023-03-26T11:18:22.841Z,8.00
2023-03-26T11:21:19.899Z,3.60
2023-03-26T11:24:59.251Z,6.60
2023-03-26T11:27:49.936Z,5.80
2023-03-26T11:30:23.828Z,4.80
2023-03-26T11:33:08.681Z,6.00
2023-03-26T11:35:49.902Z,7.00
2023-03-26T11:38:26.720Z,3.90
2023-03-26T11:41:05.223Z,4.10
2023-03-26T11:44:18.234Z,3.70
2023-03-26T11:47:04.240Z,2.80
2023-03-26T11:49:37.909Z,4.00
2023-03-26T11:52:09.547Z,4.70
2023-03-26T11:54:57.031Z,5.10
2023-03-26T11:58:07.997Z,5.00
2023-03-26T12:00:41.972Z,4.90
2023-03-26T12:03:22.955Z,3.80
2023-03-26T12:05:59.540Z,4.40
2023-03-26T12:08:43.634Z,5.80
2023-03-26T12:11:46.761Z,13.10
2023-03-26T12:14:32.584Z,14.80
2023-03-26T12:18:03.486Z,4.60
2023-03-26T12:20:57.226Z,6.70
2023-03-26T12:23:55.963Z,8.70
2023-03-26T12:27:41.382Z,9.70
2023-03-26T12:30:31.144Z,7.10
2023-03-26T12:33:14.739Z,8.30
2023-03-26T12:35:51.971Z,6.50
2023-03-26T12:38:34.385Z,8.40
2023-03-26T12:44:43.489Z,7.30
2023-03-26T12:44:58.811Z,6.70
2023-03-26T12:47:59.882Z,7.60
2023-03-26T12:50:54.091Z,7.30
2023-03-26T12:54:02.169Z,6.50
2023-03-26T12:57:27.743Z,7.60
2023-03-26T13:00:51.103Z,6.10
2023-03-26T13:04:01.706Z,7.30
2023-03-26T13:07:12.050Z,8.60
2023-03-26T13:10:44.475Z,4.90
2023-03-26T13:14:15.272Z,5.90
2023-03-26T13:17:23.264Z,6.20
2023-03-26T13:20:48.464Z,5.00
2023-03-26T13:24:22.341Z,5.70
2023-03-26T13:28:11.295Z,5.20
2023-03-26T13:32:02.605Z,4.30
2023-03-26T13:35:30.359Z,5.30
2023-03-26T13:38:40.602Z,5.60
2023-03-26T13:41:30.225Z,19.80
2023-03-26T13:45:05.041Z,8.30
2023-03-26T13:48:03.121Z,4.30
2023-03-26T13:53:28.172Z,5.60
2023-03-26T13:56:25.548Z,5.60
2023-03-26T13:59:23.698Z,7.90
2023-03-26T14:02:42.808Z,4.20
2023-03-26T14:06:05.073Z,6.40
2023-03-26T14:09:02.367Z,7.10
2023-03-26T14:12:21.164Z,4.80
2023-03-26T14:15:49.079Z,4.00
2023-03-26T14:19:12.503Z,6.30
2023-03-26T14:22:36.578Z,4.40
2023-03-26T14:26:14.730Z,9.70
2023-03-26T14:29:56.914Z,8.20
2023-03-26T14:33:03.082Z,5.70
2023-03-26T14:36:12.347Z,6.30
2023-03-26T14:39:12.434Z,5.90
2023-03-26T14:41:50.385Z,6.10
2023-03-26T14:44:48.751Z,5.90
2023-03-26T14:48:18.007Z,6.00
2023-03-26T14:52:03.242Z,7.00
2023-03-26T14:54:53.215Z,5.30
2023-03-26T14:58:04.877Z,5.60
2023-03-26T15:01:46.943Z,6.70
2023-03-26T15:05:03.744Z,8.30
2023-03-26T15:08:13.852Z,12.10
2023-03-26T15:11:13.013Z,6.50
2023-03-26T15:14:50.930Z,13.70
2023-03-26T15:18:05.794Z,17.20
2023-03-26T15:21:13.075Z,13.00
2023-03-26T15:24:40.300Z,11.60
2023-03-26T15:27:48.032Z,9.30
2023-03-26T15:35:58.305Z,8.20
2023-03-26T15:39:01.194Z,7.50
2023-03-26T15:42:36.108Z,8.00
2023-03-26T15:45:42.317Z,5.60
2023-03-26T15:49:35.673Z,7.00
2023-03-26T15:52:56.131Z,6.30
2023-03-26T15:56:08.039Z,6.00
2023-03-26T15:59:11.804Z,5.80
2023-03-26T16:02:17.507Z,6.10
2023-03-26T16:05:53.230Z,7.00
2023-03-26T16:09:05.123Z,5.40
2023-03-26T16:12:23.361Z,7.40
2023-03-26T16:15:30.126Z,5.30
2023-03-26T16:18:19.584Z,6.40
2023-03-26T16:21:31.210Z,9.70
2023-03-26T16:24:19.631Z,6.90
2023-03-26T16:27:38.171Z,92.70
2023-03-26T16:31:38.457Z,20.30
2023-03-26T16:35:27.649Z,17.80
2023-03-26T16:39:10.158Z,17.10
2023-03-26T16:49:20.165Z,12.10
2023-03-26T16:52:30.771Z,11.50
2023-03-26T17:18:05.923Z,19.40
2023-03-26T17:21:08.630Z,21.10
2023-03-26T17:24:18.320Z,21.80
2023-03-26T17:27:14.606Z,18.30
2023-03-26T17:30:42.451Z,23.40
2023-03-26T17:33:53.057Z,28.10
2023-03-26T17:36:46.877Z,31.20
2023-03-26T17:39:51.675Z,29.60
2023-03-26T17:42:53.059Z,37.40
2023-03-26T17:45:42.286Z,31.90
2023-03-26T17:58:04.569Z,38.80
2023-03-26T18:27:50.656Z,73.30
2023-03-26T18:30:52.444Z,71.60
2023-03-26T18:33:35.514Z,78.20
2023-03-26T18:36:06.913Z,82.00
2023-03-26T18:39:01.644Z,77.70
2023-03-26T18:41:49.541Z,78.70
2023-03-26T18:44:24.325Z,80.70
2023-03-26T18:46:57.465Z,76.90
2023-03-26T18:49:33.892Z,86.80
2023-03-26T18:52:16.770Z,101.10
2023-03-26T18:55:01.160Z,89.70
2023-03-26T18:57:45.071Z,90.40
2023-03-26T19:00:31.220Z,105.30
2023-03-26T19:03:08.985Z,139.10
2023-03-26T19:05:55.924Z,104.10
2023-03-26T19:09:16.203Z,114.00
2023-03-26T19:12:59.769Z,95.40
2023-03-26T19:15:41.057Z,105.80
2023-03-26T19:19:10.548Z,105.10
2023-03-26T19:21:45.581Z,125.90
2023-03-26T19:24:22.576Z,119.20
2023-03-26T19:26:58.190Z,124.30
2023-03-26T19:29:43.025Z,121.80
2023-03-26T19:32:37.347Z,212.50
2023-03-26T19:35:31.348Z,192.00
2023-03-26T19:38:16.249Z,213.90
2023-03-26T19:41:00.327Z,199.90
2023-03-26T19:44:04.969Z,208.20
2023-03-26T19:46:53.696Z,172.60
2023-03-26T19:49:54.466Z,178.10
2023-03-26T19:52:39.879Z,175.00
2023-03-26T19:55:12.586Z,193.40
2023-03-26T19:57:46.405Z,217.00
2023-03-26T20:00:16.915Z,213.50
2023-03-26T20:02:52.250Z,214.60
2023-03-26T20:05:43.380Z,228.40
2023-03-26T20:08:27.336Z,221.10
2023-03-26T20:10:59.441Z,225.90
2023-03-26T20:13:35.315Z,234.70
2023-03-26T20:16:33.863Z,238.70
2023-03-26T20:19:23.146Z,238.60
2023-03-26T20:21:58.888Z,236.70
2023-03-26T20:24:37.937Z,232.20
2023-03-26T20:27:13.688Z,236.00
2023-03-26T20:29:43.431Z,237.80
2023-03-26T20:33:13.714Z,241.80
2023-03-26T20:36:33.439Z,246.20
2023-03-26T20:39:53.597Z,228.50
2023-03-26T20:42:26.867Z,225.50
2023-03-26T20:45:43.441Z,233.00
2023-03-26T20:48:48.832Z,221.20
2023-03-26T20:51:58.334Z,155.60
2023-03-26T20:54:33.047Z,95.40
2023-03-26T20:57:14.972Z,79.70
2023-03-26T20:59:56.468Z,92.80
2023-03-26T21:02:52.570Z,105.60
2023-03-26T21:05:33.344Z,114.90
2023-03-26T21:08:27.048Z,107.20
2023-03-26T21:11:26.916Z,122.50
2023-03-26T21:15:10.215Z,125.70
2023-03-26T21:19:06.665Z,127.70
2023-03-26T21:21:32.150Z,133.40
2023-03-26T21:24:35.652Z,135.80
2023-03-26T21:27:47.929Z,112.00
2023-03-26T21:30:27.183Z,114.00
2023-03-26T21:36:00.011Z,128.80
2023-03-26T21:38:33.655Z,136.20
2023-03-26T21:41:09.518Z,148.80
2023-03-26T21:43:47.545Z,154.20
2023-03-26T21:46:20.752Z,150.10
2023-03-26T21:48:58.677Z,146.20
2023-03-26T21:51:28.991Z,151.00
2023-03-26T21:53:59.126Z,160.20
2023-03-26T21:57:04.437Z,153.40
2023-03-26T22:00:19.325Z,158.80
2023-03-26T22:03:06.221Z,149.50
2023-03-26T22:06:13.632Z,152.50
2023-03-26T22:08:59.243Z,153.70
2023-03-26T22:11:34.172Z,155.20
2023-03-26T22:14:09.432Z,159.80
2023-03-26T22:16:59.026Z,156.10
2023-03-26T22:19:45.831Z,163.10
2023-03-26T22:22:15.624Z,155.80
2023-03-26T22:24:59.846Z,167.50
2023-03-26T22:27:49.162Z,163.00
2023-03-26T22:33:32.726Z,168.30
2023-03-26T22:36:22.692Z,187.00
2023-03-26T22:39:03.466Z,170.90
2023-03-26T22:41:45.116Z,192.90
2023-03-26T22:44:51.061Z,187.40
2023-03-26T22:47:44.424Z,202.80
2023-03-26T22:50:20.145Z,214.60
2023-03-26T22:53:00.741Z,204.90
2023-03-26T22:55:33.419Z,211.10
2023-03-26T22:58:05.698Z,209.40
2023-03-26T23:00:45.920Z,195.20
2023-03-26T23:03:16.096Z,208.70
2023-03-26T23:06:02.198Z,207.20
2023-03-26T23:08:42.140Z,175.70
2023-03-26T23:11:22.141Z,173.90
2023-03-26T23:13:59.804Z,173.90
2023-03-26T23:16:48.510Z,174.40
2023-03-26T23:19:34.275Z,179.20
2023-03-26T23:22:14.886Z,175.20
2023-03-26T23:24:46.405Z,172.60
2023-03-26T23:27:24.715Z,165.10
2023-03-26T23:29:55.760Z,167.30
2023-03-26T23:32:32.319Z,174.70
2023-03-26T23:35:10.574Z,173.00
2023-03-26T23:37:42.669Z,190.30
2023-03-26T23:40:16.113Z,171.40
2023-03-26T23:42:47.839Z,177.90
2023-03-26T23:47:54.442Z,173.50
2023-03-26T23:50:29.371Z,176.60
2023-03-26T23:52:59.721Z,161.20
2023-03-26T23:55:48.666Z,164.00
2023-03-26T23:58:19.084Z,161.40
